createdAt,value
2019-02-21T00:02:29.442Z,13.80
2019-02-21T00:04:59.385Z,16.10
2019-02-21T00:07:29.286Z,14.60
2019-02-21T00:09:59.159Z,15.40
2019-02-21T00:12:29.460Z,17.47
2019-02-21T00:14:59.330Z,15.40
2019-02-21T00:17:29.291Z,18.47
2019-02-21T00:19:59.445Z,19.00
2019-02-21T00:22:29.327Z,18.70
2019-02-21T00:24:59.121Z,20.67
2019-02-21T00:27:29.388Z,20.40
2019-02-21T00:29:59.699Z,18.70
2019-02-21T00:32:30.021Z,17.43
2019-02-21T00:34:59.893Z,18.47
2019-02-21T00:37:29.706Z,17.50
2019-02-21T00:39:59.998Z,20.57
2019-02-21T00:42:31.127Z,17.27
2019-02-21T00:45:01.006Z,17.70
2019-02-21T00:47:31.027Z,17.97
2019-02-21T00:50:00.913Z,15.63
2019-02-21T00:52:31.571Z,19.53
2019-02-21T00:55:01.483Z,13.83
2019-02-21T00:57:31.424Z,17.80
2019-02-21T01:00:01.965Z,17.13
2019-02-21T01:02:33.789Z,17.17
2019-02-21T01:05:03.947Z,17.80
2019-02-21T01:07:35.596Z,14.67
2019-02-21T01:10:05.645Z,15.87
2019-02-21T01:12:35.636Z,18.50
2019-02-21T01:15:06.828Z,18.33
2019-02-21T01:17:36.834Z,19.43
2019-02-21T01:20:07.023Z,20.63
2019-02-21T01:22:37.937Z,17.47
2019-02-21T01:25:08.137Z,19.97
2019-02-21T01:27:38.077Z,15.30
2019-02-21T01:30:08.624Z,18.57
2019-02-21T01:32:38.941Z,17.27
2019-02-21T01:35:08.911Z,20.30
2019-02-21T01:37:38.819Z,18.20
2019-02-21T01:40:08.908Z,22.07
2019-02-21T01:42:39.822Z,18.70
2019-02-21T01:45:10.159Z,22.27
2019-02-21T01:47:40.152Z,17.80
2019-02-21T01:50:10.207Z,17.70
2019-02-21T01:52:40.013Z,19.93
2019-02-21T01:55:10.533Z,17.13
2019-02-21T01:57:40.859Z,21.10
2019-02-21T02:00:10.923Z,20.33
2019-02-21T02:02:41.335Z,18.37
2019-02-21T02:05:11.424Z,20.50
2019-02-21T02:07:41.319Z,20.73
2019-02-21T02:10:11.753Z,17.87
2019-02-21T02:12:41.699Z,19.23
2019-02-21T02:15:12.091Z,21.30
2019-02-21T02:17:41.994Z,18.80
2019-02-21T02:20:11.954Z,22.97
2019-02-21T02:22:41.840Z,21.50
2019-02-21T02:25:12.163Z,21.03
2019-02-21T02:27:42.689Z,21.37
2019-02-21T02:30:12.639Z,19.83
2019-02-21T02:32:42.879Z,20.47
2019-02-21T02:35:13.513Z,17.83
2019-02-21T02:37:43.459Z,17.53
2019-02-21T02:40:13.408Z,19.50
2019-02-21T02:42:44.145Z,20.17
2019-02-21T02:45:14.083Z,21.10
2019-02-21T02:47:44.409Z,17.40
2019-02-21T02:50:14.283Z,19.20
2019-02-21T02:52:44.152Z,18.57
2019-02-21T02:55:14.305Z,19.07
2019-02-21T02:57:44.838Z,17.30
2019-02-21T03:00:15.374Z,20.10
2019-02-21T03:02:45.675Z,18.60
2019-02-21T03:05:15.816Z,17.37
2019-02-21T03:07:46.073Z,17.77
2019-02-21T03:10:16.233Z,18.77
2019-02-21T03:12:47.160Z,19.73
2019-02-21T03:15:18.103Z,18.87
2019-02-21T03:17:47.912Z,19.73
2019-02-21T03:20:17.797Z,17.33
2019-02-21T03:22:47.683Z,16.27
2019-02-21T03:25:17.969Z,17.03
2019-02-21T03:27:48.264Z,18.33
2019-02-21T03:30:18.221Z,15.17
2019-02-21T03:32:48.121Z,20.23
2019-02-21T03:35:18.072Z,17.00
2019-02-21T03:37:48.915Z,16.97
2019-02-21T03:40:18.852Z,17.23
2019-02-21T03:42:48.741Z,17.37
2019-02-21T03:45:18.751Z,19.53
2019-02-21T03:47:48.833Z,17.63
2019-02-21T03:50:19.177Z,19.30
2019-02-21T03:52:49.106Z,18.03
2019-02-21T03:55:19.428Z,18.93
2019-02-21T03:57:49.386Z,19.30
2019-02-21T04:00:19.339Z,17.57
2019-02-21T04:02:49.296Z,17.70
2019-02-21T04:05:19.909Z,19.50
2019-02-21T04:07:50.521Z,18.93
2019-02-21T04:10:20.475Z,20.53
2019-02-21T04:12:50.351Z,21.53
2019-02-21T04:15:20.413Z,19.67
2019-02-21T04:17:50.353Z,20.93
2019-02-21T04:20:20.358Z,16.47
2019-02-21T04:22:50.371Z,16.27
2019-02-21T04:25:20.344Z,20.17
2019-02-21T04:27:50.291Z,17.80
2019-02-21T04:30:20.254Z,20.67
2019-02-21T04:32:50.222Z,17.27
2019-02-21T04:35:20.024Z,19.43
2019-02-21T04:37:50.265Z,20.20
2019-02-21T04:40:20.074Z,21.47
2019-02-21T04:42:50.018Z,24.97
2019-02-21T04:45:19.978Z,18.80
2019-02-21T04:47:49.926Z,18.60
2019-02-21T04:50:19.817Z,20.43
2019-02-21T04:52:50.027Z,18.07
2019-02-21T04:55:19.908Z,20.70
2019-02-21T04:57:50.201Z,19.13
2019-02-21T05:00:20.901Z,17.03
2019-02-21T05:02:50.767Z,17.27
2019-02-21T05:05:20.654Z,17.33
2019-02-21T05:07:50.863Z,20.40
2019-02-21T05:10:20.705Z,19.33
2019-02-21T05:12:50.504Z,19.07
2019-02-21T05:15:20.840Z,14.30
2019-02-21T05:17:50.795Z,19.60
2019-02-21T05:20:20.733Z,22.73
2019-02-21T05:22:50.923Z,22.67
2019-02-21T05:25:20.795Z,20.13
2019-02-21T05:27:58.157Z,18.97
2019-02-21T05:30:28.399Z,18.70
2019-02-21T05:33:06.899Z,19.93
2019-02-21T05:35:50.054Z,19.40
2019-02-21T05:38:28.680Z,17.97
2019-02-21T05:41:15.381Z,19.43
2019-02-21T05:44:01.275Z,20.67
2019-02-21T05:46:50.475Z,18.33
2019-02-21T05:49:26.591Z,20.60
2019-02-21T05:52:27.911Z,20.63
2019-02-21T05:55:30.087Z,20.17
2019-02-21T05:58:05.250Z,20.77
2019-02-21T06:00:52.572Z,19.40
2019-02-21T06:03:59.894Z,18.30
2019-02-21T06:06:52.536Z,20.90
2019-02-21T06:09:53.900Z,16.60
2019-02-21T06:12:33.477Z,17.83
2019-02-21T06:15:20.998Z,22.70
2019-02-21T06:18:17.924Z,18.60
2019-02-21T06:20:57.916Z,22.97
2019-02-21T06:23:52.695Z,18.97
2019-02-21T06:26:39.968Z,20.67
2019-02-21T06:29:17.251Z,25.03
2019-02-21T06:31:47.207Z,19.30
2019-02-21T06:34:17.241Z,24.13
2019-02-21T06:36:47.428Z,20.67
2019-02-21T06:39:17.734Z,20.17
2019-02-21T06:41:58.714Z,20.53
2019-02-21T06:44:19.626Z,19.93
2019-02-21T06:46:49.573Z,21.77
2019-02-21T06:49:19.478Z,21.70
2019-02-21T06:51:49.694Z,19.50
2019-02-21T06:54:19.674Z,22.73
2019-02-21T06:56:50.740Z,19.60
2019-02-21T06:59:20.709Z,19.40
2019-02-21T07:01:50.579Z,21.47
2019-02-21T07:04:20.460Z,19.77
2019-02-21T07:06:50.332Z,19.20
2019-02-21T07:09:20.297Z,21.33
2019-02-21T07:11:50.242Z,23.37
2019-02-21T07:14:20.122Z,24.50
2019-02-21T07:16:50.660Z,19.70
2019-02-21T07:19:20.566Z,21.13
2019-02-21T07:21:51.012Z,24.03
2019-02-21T07:24:20.824Z,61.53
2019-02-21T07:26:50.769Z,40.97
2019-02-21T07:29:20.723Z,30.53
2019-02-21T07:31:50.677Z,29.23
2019-02-21T07:34:20.879Z,24.07
2019-02-21T07:36:50.842Z,22.93
2019-02-21T07:39:21.017Z,21.17
2019-02-21T07:41:51.048Z,25.43
2019-02-21T07:44:20.933Z,22.20
2019-02-21T07:46:53.341Z,25.50
2019-02-21T07:49:22.848Z,23.73
2019-02-21T07:51:53.028Z,23.77
2019-02-21T07:54:22.995Z,26.03
2019-02-21T07:56:52.952Z,19.57
2019-02-21T07:59:22.913Z,23.53
2019-02-21T08:01:53.187Z,24.33
2019-02-21T08:04:23.072Z,32.03
2019-02-21T08:06:55.568Z,30.03
2019-02-21T08:09:24.567Z,24.57
2019-02-21T08:11:54.771Z,27.50
2019-02-21T08:14:25.038Z,27.87
2019-02-21T08:16:56.123Z,23.47
2019-02-21T08:19:26.533Z,25.37
2019-02-21T08:21:56.418Z,25.63
2019-02-21T08:24:26.215Z,30.07
2019-02-21T08:26:56.511Z,30.07
2019-02-21T08:29:26.460Z,32.70
2019-02-21T08:31:56.415Z,41.30
2019-02-21T08:34:31.277Z,29.10
2019-02-21T08:37:01.228Z,51.13
2019-02-21T08:39:31.175Z,87.13
2019-02-21T08:42:01.072Z,60.10
2019-02-21T08:44:31.013Z,42.27
2019-02-21T08:47:01.036Z,36.07
2019-02-21T08:49:30.907Z,40.83
2019-02-21T08:52:00.779Z,34.93
2019-02-21T08:54:31.120Z,29.17
2019-02-21T08:57:01.087Z,30.93
2019-02-21T08:59:31.254Z,24.20
2019-02-21T09:02:04.874Z,21.77
2019-02-21T09:04:33.535Z,28.10
2019-02-21T09:07:03.893Z,30.07
2019-02-21T09:09:33.769Z,31.40
2019-02-21T09:12:05.626Z,26.93
2019-02-21T09:14:35.860Z,27.60
2019-02-21T09:17:09.312Z,25.37
2019-02-21T09:19:38.507Z,25.33
2019-02-21T09:22:08.583Z,28.43
2019-02-21T09:24:42.297Z,29.63
2019-02-21T09:27:10.795Z,29.33
2019-02-21T09:29:40.750Z,26.87
2019-02-21T09:32:10.624Z,30.27
2019-02-21T09:34:40.498Z,25.73
2019-02-21T09:37:10.799Z,27.37
2019-02-21T09:39:40.681Z,26.90
2019-02-21T09:42:10.685Z,28.43
2019-02-21T09:44:40.637Z,28.23
2019-02-21T09:47:10.602Z,27.27
2019-02-21T09:49:41.256Z,28.33
2019-02-21T09:52:11.206Z,29.17
2019-02-21T09:54:41.097Z,30.13
2019-02-21T09:57:13.641Z,31.07
2019-02-21T09:59:44.731Z,31.83
2019-02-21T10:02:14.753Z,26.87
2019-02-21T10:04:44.929Z,31.03
2019-02-21T10:07:14.892Z,29.90
2019-02-21T10:09:44.876Z,27.87
2019-02-21T10:12:15.809Z,29.30
2019-02-21T10:14:45.767Z,30.90
2019-02-21T10:17:15.723Z,34.03
2019-02-21T10:19:45.526Z,35.57
2019-02-21T10:22:15.502Z,36.93
2019-02-21T10:24:46.548Z,35.00
2019-02-21T10:27:16.500Z,28.53
2019-02-21T10:29:46.576Z,33.57
2019-02-21T10:32:16.859Z,35.50
2019-02-21T10:34:46.844Z,38.17
2019-02-21T10:37:17.155Z,34.87
2019-02-21T10:39:48.011Z,35.07
2019-02-21T10:42:18.362Z,33.50
2019-02-21T10:44:48.336Z,35.03
2019-02-21T10:47:18.677Z,36.40
2019-02-21T10:49:48.623Z,33.40
2019-02-21T10:52:18.651Z,36.47
2019-02-21T10:54:48.616Z,32.03
2019-02-21T10:57:18.576Z,33.57
2019-02-21T10:59:48.520Z,34.30
2019-02-21T11:02:18.796Z,35.27
2019-02-21T11:04:54.939Z,38.30
2019-02-21T11:07:20.329Z,33.00
2019-02-21T11:09:50.293Z,41.73
2019-02-21T11:12:20.246Z,34.07
2019-02-21T11:14:50.222Z,41.43
2019-02-21T11:17:20.195Z,38.17
2019-02-21T11:19:50.153Z,40.17
2019-02-21T11:22:20.154Z,44.23
2019-02-21T11:24:50.118Z,37.67
2019-02-21T11:27:20.098Z,42.10
2019-02-21T11:29:49.898Z,36.90
2019-02-21T11:32:19.780Z,34.43
2019-02-21T11:34:49.655Z,38.33
2019-02-21T11:37:19.918Z,40.53
2019-02-21T11:39:50.086Z,37.70
2019-02-21T11:42:19.995Z,37.77
2019-02-21T11:44:49.871Z,36.97
2019-02-21T11:47:19.871Z,36.40
2019-02-21T11:49:50.033Z,43.10
2019-02-21T11:52:20.022Z,40.43
2019-02-21T11:54:49.922Z,42.47
2019-02-21T11:57:19.893Z,34.63
2019-02-21T11:59:50.202Z,34.67
2019-02-21T12:02:20.436Z,37.07
2019-02-21T12:04:50.387Z,35.50
2019-02-21T12:07:20.346Z,37.87
2019-02-21T12:09:50.370Z,36.27
2019-02-21T12:12:20.261Z,37.33
2019-02-21T12:14:50.215Z,39.53
2019-02-21T12:17:20.174Z,35.07
2019-02-21T12:19:50.338Z,38.90
2019-02-21T12:22:20.611Z,41.00
2019-02-21T12:24:50.887Z,41.97
2019-02-21T12:27:21.122Z,45.73
2019-02-21T12:29:51.328Z,37.47
2019-02-21T12:32:21.336Z,38.13
2019-02-21T12:34:51.209Z,35.80
2019-02-21T12:37:21.378Z,40.40
2019-02-21T12:39:51.328Z,32.27
2019-02-21T12:42:21.622Z,31.57
2019-02-21T12:44:52.293Z,36.57
2019-02-21T12:47:22.209Z,36.27
2019-02-21T12:49:52.080Z,34.93
2019-02-21T12:52:22.157Z,30.73
2019-02-21T12:54:52.030Z,34.87
2019-02-21T12:57:22.625Z,36.60
2019-02-21T12:59:52.645Z,32.97
2019-02-21T13:02:22.523Z,35.90
2019-02-21T13:04:52.704Z,33.40
2019-02-21T13:07:22.875Z,35.03
2019-02-21T13:09:52.820Z,34.17
2019-02-21T13:12:22.788Z,30.40
2019-02-21T13:14:52.740Z,31.07
2019-02-21T13:17:23.150Z,31.17
2019-02-21T13:19:53.051Z,34.90
2019-02-21T13:22:23.166Z,35.67
2019-02-21T13:24:53.056Z,28.67
2019-02-21T13:27:23.342Z,29.13
2019-02-21T13:29:54.682Z,36.90
2019-02-21T13:32:25.029Z,31.60
2019-02-21T13:34:54.920Z,35.30
2019-02-21T13:37:28.581Z,34.17
2019-02-21T13:39:56.863Z,33.73
2019-02-21T13:42:28.879Z,28.20
2019-02-21T13:44:58.998Z,32.43
2019-02-21T13:47:29.045Z,35.10
2019-02-21T13:49:58.942Z,36.23
2019-02-21T13:52:28.902Z,32.43
2019-02-21T13:54:58.991Z,36.13
2019-02-21T13:57:28.964Z,33.63
2019-02-21T13:59:58.950Z,31.97
2019-02-21T14:02:28.835Z,32.03
2019-02-21T14:04:59.037Z,33.13
2019-02-21T14:07:29.047Z,32.63
2019-02-21T14:09:59.914Z,34.20
2019-02-21T14:12:29.907Z,33.47
2019-02-21T14:15:00.212Z,31.77
2019-02-21T14:17:30.262Z,34.87
2019-02-21T14:20:00.591Z,32.13
2019-02-21T14:22:30.580Z,29.23
2019-02-21T14:25:00.562Z,39.33
2019-02-21T14:27:31.855Z,33.23
2019-02-21T14:30:03.076Z,30.97
2019-02-21T14:32:35.302Z,31.93
2019-02-21T14:35:05.517Z,30.47
2019-02-21T14:37:35.368Z,25.93
2019-02-21T14:40:05.908Z,30.40
2019-02-21T14:42:36.319Z,29.87
2019-02-21T14:45:07.345Z,27.77
2019-02-21T14:47:37.688Z,28.07
2019-02-21T14:50:08.189Z,27.73
2019-02-21T14:52:38.415Z,28.63
2019-02-21T14:55:09.549Z,26.83
2019-02-21T14:57:41.157Z,29.57
2019-02-21T15:00:15.189Z,28.70
2019-02-21T15:02:45.649Z,29.37
2019-02-21T15:05:15.639Z,30.13
2019-02-21T15:07:45.595Z,25.83
2019-02-21T15:10:15.988Z,29.53
2019-02-21T15:12:45.971Z,28.10
2019-02-21T15:15:16.894Z,24.80
2019-02-21T15:17:47.919Z,26.30
2019-02-21T15:20:18.107Z,25.70
2019-02-21T15:22:48.058Z,27.43
2019-02-21T15:25:18.847Z,25.77
2019-02-21T15:27:48.802Z,24.20
2019-02-21T15:30:19.732Z,31.00
2019-02-21T15:32:49.707Z,27.03
2019-02-21T15:35:19.918Z,29.77
2019-02-21T15:37:50.322Z,27.57
2019-02-21T15:40:20.290Z,26.77
2019-02-21T15:42:52.553Z,24.70
2019-02-21T15:45:23.739Z,22.13
2019-02-21T15:47:53.974Z,27.60
2019-02-21T15:50:23.879Z,24.83
2019-02-21T15:52:53.784Z,25.43
2019-02-21T15:55:23.751Z,25.83
2019-02-21T15:58:03.482Z,25.13
2019-02-21T16:00:25.415Z,24.40
2019-02-21T16:02:55.339Z,25.47
2019-02-21T16:05:25.871Z,25.13
2019-02-21T16:07:55.838Z,32.83
2019-02-21T16:10:25.811Z,28.10
2019-02-21T16:12:56.429Z,27.60
2019-02-21T16:15:26.808Z,30.80
2019-02-21T16:17:57.366Z,26.97
2019-02-21T16:20:27.709Z,29.30
2019-02-21T16:22:57.594Z,29.20
2019-02-21T16:25:28.497Z,31.27
2019-02-21T16:27:58.464Z,28.80
2019-02-21T16:30:28.685Z,31.53
2019-02-21T16:32:58.965Z,27.30
2019-02-21T16:35:28.845Z,28.57
2019-02-21T16:37:58.856Z,28.40
2019-02-21T16:40:29.773Z,28.20
2019-02-21T16:42:59.739Z,34.40
2019-02-21T16:45:42.447Z,26.07
2019-02-21T16:48:01.414Z,28.17
2019-02-21T16:50:31.850Z,27.80
2019-02-21T16:53:01.788Z,26.50
2019-02-21T16:55:31.917Z,30.27
2019-02-21T16:58:01.773Z,27.63
2019-02-21T17:00:47.684Z,28.60
2019-02-21T17:03:03.705Z,30.67
2019-02-21T17:05:33.605Z,31.07
2019-02-21T17:08:03.558Z,26.20
2019-02-21T17:10:33.596Z,28.23
2019-02-21T17:13:03.543Z,28.10
2019-02-21T17:15:33.494Z,26.93
2019-02-21T17:18:04.058Z,30.70
2019-02-21T17:20:34.110Z,31.80
2019-02-21T17:23:04.079Z,31.87
2019-02-21T17:25:34.335Z,31.53
2019-02-21T17:28:04.292Z,29.00
2019-02-21T17:30:34.197Z,31.23
2019-02-21T17:33:04.079Z,33.90
2019-02-21T17:35:34.232Z,30.67
2019-02-21T17:38:04.113Z,32.17
2019-02-21T17:40:34.095Z,35.93
2019-02-21T17:43:04.043Z,31.80
2019-02-21T17:45:34.208Z,32.33
2019-02-21T17:48:04.270Z,39.77
2019-02-21T17:50:34.295Z,35.77
2019-02-21T17:53:04.242Z,33.73
2019-02-21T17:55:34.278Z,34.80
2019-02-21T17:58:05.478Z,32.63
2019-02-21T18:00:37.275Z,34.63
2019-02-21T18:03:07.346Z,29.40
2019-02-21T18:05:37.312Z,31.53
2019-02-21T18:08:07.266Z,34.00
2019-02-21T18:10:37.233Z,34.13
2019-02-21T18:13:07.194Z,34.27
2019-02-21T18:15:37.148Z,32.90
2019-02-21T18:18:07.109Z,33.70
2019-02-21T18:20:37.049Z,36.07
2019-02-21T18:23:06.932Z,36.73
2019-02-21T18:25:40.018Z,38.53
2019-02-21T18:28:11.075Z,33.37
2019-02-21T18:30:41.038Z,39.97
2019-02-21T18:33:11.039Z,37.00
2019-02-21T18:35:41.008Z,37.33
2019-02-21T18:38:11.307Z,40.87
2019-02-21T18:40:41.255Z,33.23
2019-02-21T18:43:11.215Z,37.60
2019-02-21T18:45:41.175Z,36.03
2019-02-21T18:48:11.133Z,40.17
2019-02-21T18:50:41.085Z,39.10
2019-02-21T18:53:11.068Z,36.10
2019-02-21T18:55:41.078Z,38.77
2019-02-21T18:58:11.025Z,38.10
2019-02-21T19:00:41.046Z,37.87
2019-02-21T19:03:11.060Z,37.03
2019-02-21T19:05:41.031Z,38.50
2019-02-21T19:08:11.273Z,38.90
2019-02-21T19:10:41.241Z,35.67
2019-02-21T19:13:11.112Z,33.00
2019-02-21T19:15:41.279Z,35.63
2019-02-21T19:18:11.631Z,35.03
2019-02-21T19:20:41.662Z,40.17
2019-02-21T19:23:11.814Z,32.60
2019-02-21T19:25:41.801Z,39.43
2019-02-21T19:28:12.122Z,37.47
2019-02-21T19:30:45.868Z,39.07
2019-02-21T19:33:15.887Z,40.13
2019-02-21T19:35:48.408Z,38.20
2019-02-21T19:38:17.650Z,36.43
2019-02-21T19:40:47.669Z,41.63
2019-02-21T19:43:36.776Z,35.80
2019-02-21T19:46:06.797Z,34.40
2019-02-21T19:48:36.839Z,33.33
2019-02-21T19:51:07.243Z,41.13
2019-02-21T19:53:37.212Z,36.97
2019-02-21T19:56:07.202Z,36.80
2019-02-21T19:58:37.103Z,35.60
2019-02-21T20:01:07.366Z,36.03
2019-02-21T20:03:37.405Z,31.53
2019-02-21T20:06:07.394Z,34.97
2019-02-21T20:08:37.385Z,35.23
2019-02-21T20:11:07.447Z,35.70
2019-02-21T20:13:37.418Z,35.50
2019-02-21T20:16:07.558Z,35.40
2019-02-21T20:18:37.491Z,43.03
2019-02-21T20:21:07.634Z,35.97
2019-02-21T20:23:37.591Z,31.60
2019-02-21T20:26:17.876Z,38.03
2019-02-21T20:28:40.428Z,36.23
2019-02-21T20:31:10.792Z,33.97
2019-02-21T20:33:40.935Z,36.23
2019-02-21T20:36:10.895Z,36.33
2019-02-21T20:38:40.873Z,35.27
2019-02-21T20:41:10.933Z,35.77
2019-02-21T20:43:41.300Z,36.83
2019-02-21T20:46:11.306Z,41.73
2019-02-21T20:48:41.478Z,42.57
2019-02-21T20:51:11.457Z,42.17
2019-02-21T20:53:41.412Z,44.37
2019-02-21T20:56:11.413Z,39.83
2019-02-21T20:58:41.703Z,38.23
2019-02-21T21:01:12.607Z,40.77
2019-02-21T21:03:42.610Z,36.23
2019-02-21T21:06:14.117Z,37.90
2019-02-21T21:08:46.688Z,38.30
2019-02-21T21:11:16.067Z,35.40
2019-02-21T21:13:46.082Z,41.37
2019-02-21T21:16:15.957Z,36.93
2019-02-21T21:18:46.070Z,38.47
2019-02-21T21:21:16.036Z,41.50
2019-02-21T21:23:45.998Z,43.10
2019-02-21T21:26:16.311Z,42.57
2019-02-21T21:28:46.614Z,40.07
2019-02-21T21:31:16.590Z,40.90
2019-02-21T21:33:46.474Z,42.50
2019-02-21T21:36:16.454Z,38.80
2019-02-21T21:38:53.800Z,45.83
2019-02-21T21:41:18.031Z,45.37
2019-02-21T21:43:47.929Z,43.30
2019-02-21T21:46:17.895Z,47.53
2019-02-21T21:48:47.787Z,43.77
2019-02-21T21:51:17.769Z,46.30
2019-02-21T21:53:47.743Z,48.23
2019-02-21T21:56:17.727Z,47.87
2019-02-21T21:58:48.708Z,45.53
2019-02-21T22:01:18.983Z,43.00
2019-02-21T22:03:49.177Z,46.10
2019-02-21T22:06:19.170Z,48.30
2019-02-21T22:08:49.101Z,44.50
2019-02-21T22:11:19.425Z,41.73
2019-02-21T22:13:49.398Z,45.60
2019-02-21T22:16:19.363Z,40.60
2019-02-21T22:18:49.271Z,44.97
2019-02-21T22:21:19.545Z,42.87
2019-02-21T22:23:49.514Z,40.63
2019-02-21T22:26:19.515Z,43.07
2019-02-21T22:28:49.842Z,43.40
2019-02-21T22:31:20.107Z,41.93
2019-02-21T22:33:49.976Z,40.57
2019-02-21T22:36:20.245Z,42.23
2019-02-21T22:38:50.208Z,46.23
2019-02-21T22:41:20.446Z,41.87
2019-02-21T22:43:50.495Z,47.83
2019-02-21T22:46:20.493Z,47.70
2019-02-21T22:48:50.389Z,46.07
2019-02-21T22:51:20.638Z,48.30
2019-02-21T22:53:50.695Z,48.00
2019-02-21T22:56:20.677Z,48.07
2019-02-21T22:58:50.644Z,51.17
2019-02-21T23:01:28.175Z,48.07
2019-02-21T23:04:43.086Z,46.97
2019-02-21T23:07:43.426Z,51.07
2019-02-21T23:10:13.836Z,50.93
2019-02-21T23:12:43.809Z,52.47
2019-02-21T23:15:15.595Z,55.37
2019-02-21T23:17:45.489Z,49.83
2019-02-21T23:20:15.503Z,47.20
2019-02-21T23:22:45.467Z,49.37
2019-02-21T23:25:15.470Z,48.47
2019-02-21T23:27:45.445Z,48.50
2019-02-21T23:30:15.606Z,51.53
2019-02-21T23:32:46.522Z,50.03
2019-02-21T23:35:21.104Z,50.07
2019-02-21T23:37:52.133Z,51.43
2019-02-21T23:40:22.945Z,55.20
2019-02-21T23:42:52.924Z,53.60
2019-02-21T23:45:22.923Z,52.03
2019-02-21T23:47:52.909Z,47.50
2019-02-21T23:50:22.715Z,47.57
2019-02-21T23:52:52.593Z,51.57
2019-02-21T23:55:22.815Z,48.07
2019-02-21T23:57:53.146Z,55.30
